Terminal Aerodrome Forecast
Issued by NWS Blacksburg, VA

Home | Current Version | Previous Version | Text Only | Print | Product List | Glossary On
Versions: 1 2 3 4 5 6 7 8 9 10 11 12 13
000
FTUS41 KRNK 182339
TAFDAN
TAF
KDAN 182339Z 1900/1924 08006KT P6SM OVC120
     FM190200 03006KT P6SM -RA OVC060
     FM191200 02010KT 5SM -RA SCT015 OVC025
     FM191700 04012KT P6SM OVC025=

USA.gov is the U.S. government's official web portal to all federal, state and local government web resources and services.